Latest Weather Observations for Perth Airport

IDW60901

Issued at 10:01 pm WST Monday 8 August 2022 (issued every 10 minutes, with the page automatically refreshed every 10 minutes)

About weather observations | Map of Perth area stations | Latest observations for Perth area | Other Formats
Station Details ID: 009021 Name: PERTH AIRPORT Lat: -31.93 Lon: 115.98 Height: 15.4 m
Data from the previous 72 hours. | See also: Recent months at Perth Airport
Date/Time
WST
Temp
°C
App
Temp
°C
Dew
Point
°C
Rel
Hum
%
Delta-T
°C
Wind Press
QNH
hPa
Press
MSL
hPa
Rain since
9am
mm
Dir  Spd
km/h
Gust
km/h
Spd
kts
Gust
kts
08/09:30pm 11.7 7.4 5.1 64 3.0 W 17 44 9 24 1012.4 1012.4 10.8
08/09:00pm 12.7 5.8 2.8 51 4.4 W 28 39 15 21 1012.1 1012.1 10.6
08/08:53pm 12.7 6.2 4.9 59 3.6 W 28 44 15 24 1012.2 1012.2 10.6
08/08:30pm 12.0 8.1 5.4 64 3.1 W 15 20 8 11 1012.1 1012.1 10.6
08/08:00pm 11.1 7.5 6.8 75 2.0 WNW 15 19 8 10 1012.2 1012.2 10.6
08/07:30pm 11.8 7.3 6.9 72 2.3 W 20 28 11 15 1012.2 1012.2 10.6
08/07:00pm 13.2 6.9 5.9 61 3.5 W 28 41 15 22 1012.0 1012.0 10.4
08/06:30pm 13.1 10.1 7.5 69 2.7 W 13 28 7 15 1011.5 1011.5 10.4
08/06:00pm 13.4 7.8 7.2 66 3.0 WSW 26 41 14 22 1011.5 1011.5 10.4
08/05:30pm 14.2 8.3 7.7 65 3.2 WSW 28 41 15 22 1011.3 1011.3 10.4
08/05:00pm 14.7 10.3 7.3 61 3.6 W 20 32 11 17 1011.0 1011.0 10.4
08/04:30pm 14.6 11.3 9.4 71 2.7 WNW 17 26 9 14 1010.8 1010.8 10.4
08/04:00pm 14.8 12.3 9.8 72 2.6 W 13 20 7 11 1010.8 1010.8 10.2
08/03:30pm 13.3 11.9 12.2 93 0.6 NNE 11 13 6 7 1010.9 1010.9 10.2
08/03:00pm 13.2 11.7 11.8 91 0.7 NE 11 15 6 8 1011.0 1011.0 10.2
08/02:43pm 13.2 12.0 11.6 90 0.9 N 9 9 5 5 1011.0 1011.0 9.0
08/02:30pm 13.5 12.4 11.9 90 0.9 NNW 9 11 5 6 1010.8 1010.8 8.8
08/02:00pm 13.2 11.1 11.1 87 1.1 WNW 13 26 7 14 1010.9 1010.9 8.8
08/01:52pm 13.4 9.5 10.9 85 1.3 W 22 35 12 19 1011.3 1011.3 8.8
08/01:30pm 14.5 13.5 12.4 87 1.1 WNW 9 15 5 8 1011.2 1011.2 8.2
08/01:17pm 14.6 13.2 12.3 86 1.3 W 11 13 6 7 1011.3 1011.3 8.0
08/01:00pm 14.6 13.6 12.3 86 1.3 WNW 9 13 5 7 1011.5 1011.5 7.8
08/12:30pm 14.3 12.8 11.8 85 1.3 W 11 15 6 8 1011.9 1011.9 7.8
08/12:00pm 14.0 10.8 11.9 87 1.1 W 20 32 11 17 1012.5 1012.5 7.4
08/11:45am 13.6 10.0 12.0 90 0.9 NW 22 41 12 22 1012.7 1012.7 7.4
08/11:30am 13.4 9.7 11.6 89 1.0 N 22 28 12 15 1012.4 1012.4 4.8
08/11:13am 13.9 8.9 10.9 82 1.6 N 28 37 15 20 1012.7 1012.7 1.4
08/11:05am 14.7 9.7 10.9 78 2.0 N 28 35 15 19 1012.7 1012.7 0.4
08/11:00am 15.0 9.7 11.2 78 2.0 N 30 37 16 20 1012.7 1012.7 0.4
08/10:30am 15.2 10.6 11.2 77 2.1 N 26 37 14 20 1013.3 1013.3 0.4
08/10:00am 13.2 7.7 10.7 85 1.3 N 30 39 16 21 1013.6 1013.6 0.4
08/09:55am 13.3 8.2 10.5 83 1.5 N 28 39 15 21 1013.6 1013.6 0.2
08/09:30am 13.1 7.8 9.7 80 1.7 N 28 37 15 20 1013.9 1013.9 0.2
08/09:00am 13.7 10.1 9.9 78 2.0 N 19 30 10 16 1014.1 1014.1 0.2
08/08:30am 13.4 8.4 8.0 70 2.7 N 24 33 13 18 1014.3 1014.3 0.2
08/08:00am 13.1 8.8 7.8 70 2.6 N 20 28 11 15 1014.1 1014.1 0.2
08/07:30am 12.0 7.6 7.3 73 2.3 N 20 26 11 14 1014.1 1014.1 0.2
08/07:00am 11.7 7.8 7.2 74 2.2 NNE 17 22 9 12 1014.3 1014.3 0.2
08/06:30am 11.8 8.3 7.1 73 2.3 N 15 19 8 10 1014.3 1014.3 0.2
08/06:00am 12.0 8.1 7.3 73 2.3 N 17 20 9 11 1014.3 1014.3 0.2
08/05:30am 11.8 8.3 7.1 73 2.3 N 15 19 8 10 1014.4 1014.4 0.2
08/05:00am 11.8 8.6 6.9 72 2.3 NNE 13 17 7 9 1014.5 1014.5 0.2
08/04:30am 11.8 9.0 6.9 72 2.3 NNE 11 15 6 8 1014.5 1014.5 0.2
08/04:00am 12.0 8.4 6.9 71 2.4 NNE 15 17 8 9 1014.8 1014.8 0.2
08/03:30am 12.2 9.0 6.9 70 2.5 N 13 17 7 9 1015.2 1015.2 0.2
08/03:00am 12.2 8.3 7.1 71 2.5 N 17 24 9 13 1015.4 1015.4 0.2
08/02:30am 12.0 9.0 7.5 74 2.2 NNE 13 15 7 8 1015.6 1015.6 0.2
08/02:00am 12.1 9.8 7.6 74 2.2 NNE 9 11 5 6 1016.0 1016.0 0.2
08/01:30am 12.1 9.5 7.8 75 2.1 NNE 11 13 6 7 1016.5 1016.5 0.2
08/01:00am 12.1 9.6 8.0 76 2.0 NNE 11 13 6 7 1016.6 1016.6 0.2
08/12:30am 11.9 9.7 8.0 77 1.9 N 9 11 5 6 1016.8 1016.8 0.2
08/12:00am 11.8 9.2 7.9 77 1.9 NE 11 13 6 7 1016.8 1016.8 0.2
 
Date/Time
WST
Temp
°C
App
Temp
°C
Dew
Point
°C
Rel
Hum
%
Delta-T
°C
Wind Press
QNH
hPa
Press
MSL
hPa
Rain since
9am
mm
Dir  Spd
km/h
Gust
km/h
Spd
kts
Gust
kts
07/11:30pm 11.8 9.1 7.5 75 2.1 NE 11 13 6 7 1017.0 1017.0 0.2
07/11:00pm 11.6 9.6 7.3 75 2.1 NE 7 9 4 5 1017.1 1017.1 0.2
07/10:30pm 11.5 8.8 7.2 75 2.1 ENE 11 17 6 9 1017.3 1017.3 0.2
07/10:00pm 11.5 9.2 7.6 77 1.9 NE 9 11 5 6 1017.6 1017.6 0.2
07/09:30pm 11.0 8.4 7.9 81 1.5 ENE 11 15 6 8 1017.9 1017.9 0.2
07/09:00pm 11.0 9.1 7.7 80 1.6 ENE 7 9 4 5 1017.8 1017.8 0.2
07/08:30pm 10.3 8.0 7.5 83 1.3 NE 9 9 5 5 1017.8 1017.8 0.2
07/08:00pm 9.1 7.9 6.4 83 1.2 NNE 2 9 1 5 1017.7 1017.7 0.2
07/07:30pm 9.1 8.1 5.5 78 1.6 CALM 0 0 0 0 1017.7 1017.7 0.2
07/07:00pm 10.1 7.8 5.9 75 1.9 NW 7 9 4 5 1017.3 1017.3 0.2
07/06:30pm 11.1 8.4 5.8 70 2.5 NW 9 13 5 7 1017.0 1017.0 0.2
07/06:00pm 13.4 10.2 5.1 57 3.9 WNW 11 15 6 8 1016.8 1016.8 0.2
07/05:30pm 14.6 11.0 4.9 52 4.5 WNW 13 17 7 9 1016.6 1016.6 0.2
07/05:00pm 16.1 11.9 3.9 44 5.6 W 15 22 8 12 1016.7 1016.7 0.2
07/04:30pm 16.7 12.9 5.6 48 5.4 W 15 19 8 10 1016.5 1016.5 0.2
07/04:00pm 17.0 12.0 6.5 50 5.2 WNW 22 32 12 17 1016.4 1016.4 0.2
07/03:30pm 17.5 13.1 7.3 51 5.1 WSW 20 30 11 16 1016.1 1016.1 0.2
07/03:00pm 17.2 12.4 5.5 46 5.6 WSW 20 30 11 16 1016.0 1016.0 0.2
07/02:30pm 17.1 13.0 6.3 49 5.3 WSW 17 22 9 12 1016.1 1016.1 0.2
07/02:00pm 17.7 13.0 5.0 43 6.1 WSW 19 26 10 14 1016.1 1016.1 0.2
07/01:30pm 17.4 12.6 5.4 45 5.8 W 20 30 11 16 1016.2 1016.2 0.2
07/01:00pm 17.5 12.2 7.0 50 5.2 WSW 24 37 13 20 1016.6 1016.6 0.2
07/12:30pm 17.2 12.1 7.5 53 4.9 WSW 24 35 13 19 1017.0 1017.0 0.2
07/12:00pm 17.2 12.4 7.3 52 4.9 WSW 22 35 12 19 1017.2 1017.2 0.2
07/11:30am 17.4 11.8 7.2 51 5.1 WSW 26 33 14 18 1017.3 1017.3 0.2
07/11:00am 16.9 11.8 7.8 55 4.6 WSW 24 35 13 19 1017.6 1017.6 0.2
07/10:30am 15.6 14.9 11.4 76 2.3 ESE 6 32 3 17 1017.7 1017.7 0.2
07/10:00am 14.9 15.3 12.4 85 1.4 NNE 2 7 1 4 1017.7 1017.7 0.2
07/09:30am 14.5 14.7 12.9 90 0.9 NNW 4 7 2 4 1017.4 1017.4 0.2
07/09:00am 13.5 12.5 12.4 93 0.6 SW 9 13 5 7 1017.5 1017.5 12.6
07/08:30am 12.9 13.2 12.3 96 0.3 WSW 2 9 1 5 1017.2 1017.2 12.6
07/08:00am 12.5 12.7 11.9 96 0.3 SSW 2 7 1 4 1017.0 1017.0 12.4
07/07:30am 12.2 12.7 11.6 96 0.3 CALM 0 0 0 0 1016.6 1016.6 12.0
07/07:20am 12.1 12.6 11.5 96 0.3 CALM 0 0 0 0 1016.4 1016.4 11.4
07/07:00am 12.2 12.7 11.6 96 0.3 CALM 0 0 0 0 1016.1 1016.1 11.4
07/06:30am 12.1 10.1 11.5 96 0.3 NNE 13 17 7 9 1015.8 1015.8 10.8
07/06:00am 12.1 9.7 11.5 96 0.3 NNE 15 19 8 10 1015.4 1015.4 10.8
07/05:30am 12.0 10.0 11.4 96 0.3 NNE 13 15 7 8 1015.3 1015.3 9.6
07/05:11am 12.0 10.3 11.2 95 0.4 NNE 11 11 6 6 1015.2 1015.2 9.6
07/05:00am 12.0 10.3 11.2 95 0.4 NNW 11 13 6 7 1015.3 1015.3 9.6
07/04:50am 12.0 9.2 11.2 95 0.4 NW 17 24 9 13 1015.6 1015.6 9.0
07/04:43am 11.9 9.4 11.1 95 0.4 N 15 22 8 12 1015.3 1015.3 8.0
07/04:30am 11.8 9.7 11.0 95 0.4 NNE 13 19 7 10 1014.9 1014.9 7.8
07/04:00am 11.7 8.4 10.9 95 0.4 N 19 26 10 14 1014.9 1014.9 7.8
07/03:44am 11.7 8.2 10.9 95 0.4 N 20 26 11 14 1014.9 1014.9 7.8
07/03:30am 11.7 7.8 10.8 94 0.5 N 22 30 12 16 1014.8 1014.8 7.8
07/03:09am 11.8 8.3 10.9 94 0.5 N 20 28 11 15 1015.0 1015.0 7.6
07/03:00am 11.9 7.7 11.0 94 0.5 N 24 32 13 17 1015.0 1015.0 7.2
07/02:30am 11.9 8.1 11.1 95 0.4 N 22 30 12 16 1014.9 1014.9 7.2
07/02:00am 11.9 8.5 11.1 95 0.4 NNE 20 26 11 14 1015.4 1015.4 7.2
07/01:39am 11.7 8.2 10.9 95 0.4 NNE 20 26 11 14 1015.8 1015.8 7.2
07/01:30am 11.7 8.4 10.9 95 0.4 NNE 19 22 10 12 1015.9 1015.9 7.2
07/01:00am 11.7 8.4 10.8 94 0.5 NNE 19 22 10 12 1015.9 1015.9 7.2
07/12:30am 11.9 8.4 11.0 94 0.5 NNE 20 28 11 15 1016.0 1016.0 7.2
07/12:00am 12.2 9.4 11.3 94 0.5 N 17 33 9 18 1016.3 1016.3 6.4
 
Date/Time
WST
Temp
°C
App
Temp
°C
Dew
Point
°C
Rel
Hum
%
Delta-T
°C
Wind Press
QNH
hPa
Press
MSL
hPa
Rain since
9am
mm
Dir  Spd
km/h
Gust
km/h
Spd
kts
Gust
kts
06/11:30pm 12.3 8.5 11.0 92 0.7 N 22 32 12 17 1016.3 1016.3 3.6
06/11:00pm 12.6 10.0 10.8 89 0.9 NNW 15 28 8 15 1016.3 1016.3 2.2
06/10:49pm 12.9 10.8 11.0 88 1.0 NNW 13 19 7 10 1016.5 1016.5 1.2
06/10:30pm 13.4 11.6 10.9 85 1.3 WNW 11 15 6 8 1016.5 1016.5 0.4
06/10:00pm 13.8 12.4 10.8 82 1.6 NNW 9 11 5 6 1016.4 1016.4 0.0
06/09:30pm 13.9 12.1 10.9 82 1.6 N 11 15 6 8 1016.1 1016.1 0.0
06/09:00pm 13.6 11.5 11.3 86 1.2 NNE 13 15 7 8 1016.4 1016.4 0.0
06/08:30pm 13.5 11.4 11.0 85 1.3 NNE 13 17 7 9 1016.5 1016.5 0.0
06/08:00pm 13.9 11.7 10.9 82 1.6 NNE 13 15 7 8 1016.7 1016.7 0.0
06/07:30pm 13.7 11.8 10.5 81 1.7 NNE 11 15 6 8 1016.7 1016.7 0.0
06/07:00pm 13.8 11.5 10.4 80 1.8 NE 13 15 7 8 1016.6 1016.6 0.0
06/06:30pm 14.6 12.3 10.6 77 2.1 NNE 13 15 7 8 1016.7 1016.7 0.0
06/06:00pm 15.1 13.2 10.5 74 2.4 NNE 11 13 6 7 1016.7 1016.7 0.0
06/05:30pm 15.4 13.1 10.4 72 2.6 N 13 15 7 8 1016.6 1016.6 0.0
06/05:00pm 15.9 13.2 10.2 69 3.0 N 15 19 8 10 1016.7 1016.7 0.0
06/04:30pm 16.9 13.9 9.1 60 4.0 NW 15 20 8 11 1016.6 1016.6 0.0
06/04:00pm 17.5 13.5 8.1 54 4.8 NW 19 26 10 14 1016.7 1016.7 0.0
06/03:30pm 17.6 13.4 8.2 54 4.8 NW 20 28 11 15 1016.8 1016.8 0.0
06/03:00pm 16.7 12.9 9.1 61 3.9 NW 19 26 10 14 1017.1 1017.1 0.0
06/02:30pm 17.3 13.5 7.6 53 4.9 WNW 17 24 9 13 1017.3 1017.3 0.0
06/02:00pm 17.2 12.3 8.4 56 4.5 WNW 24 32 13 17 1017.5 1017.5 0.0
06/01:30pm 16.8 12.9 8.8 59 4.1 NW 19 28 10 15 1017.6 1017.6 0.0
06/01:00pm 16.2 13.0 10.1 67 3.2 NW 17 24 9 13 1018.1 1018.1 0.0
06/12:30pm 16.1 12.7 9.3 64 3.5 NW 17 22 9 12 1018.7 1018.7 0.0
06/12:00pm 17.1 14.7 10.2 64 3.6 NNW 13 22 7 12 1019.2 1019.2 0.0
06/11:30am 16.0 13.0 10.5 70 2.9 N 17 26 9 14 1019.7 1019.7 0.0
06/11:00am 15.3 12.4 11.1 76 2.2 N 17 22 9 12 1020.0 1020.0 0.0
06/10:30am 15.3 12.0 10.9 75 2.3 N 19 24 10 13 1020.2 1020.2 0.0
06/10:00am 14.2 10.8 10.6 79 1.9 NNE 19 24 10 13 1020.3 1020.3 0.0
06/09:30am 13.2 10.1 10.4 83 1.5 N 17 22 9 12 1020.3 1020.3 0.0
06/09:00am 12.5 9.3 10.0 85 1.3 N 17 20 9 11 1020.3 1020.3 2.8
06/08:30am 11.3 8.7 9.4 88 1.0 NNE 13 15 7 8 1020.0 1020.0 2.8
06/08:00am 10.2 7.8 8.8 91 0.7 NNE 11 15 6 8 1019.9 1019.9 2.8
06/07:30am 9.3 7.2 8.2 93 0.5 NE 9 11 5 6 1019.6 1019.6 2.8
06/07:00am 9.1 8.3 8.0 93 0.5 N 2 13 1 7 1019.5 1019.5 2.8
06/06:30am 9.5 7.0 8.4 93 0.5 NNE 11 11 6 6 1019.2 1019.2 2.8
06/06:00am 9.9 7.9 8.8 93 0.5 NNE 9 11 5 6 1019.1 1019.1 2.8
06/05:30am 9.9 7.9 8.8 93 0.5 NNE 9 13 5 7 1019.0 1019.0 2.8
06/05:00am 9.9 7.2 8.8 93 0.5 NNE 13 17 7 9 1018.9 1018.9 2.8
06/04:30am 10.0 7.3 8.9 93 0.5 NNE 13 17 7 9 1018.8 1018.8 2.8
06/04:00am 10.2 6.8 9.3 94 0.4 NNE 17 20 9 11 1018.8 1018.8 2.8
06/03:30am 10.6 8.1 9.7 94 0.5 NNE 13 17 7 9 1019.0 1019.0 2.8
06/03:00am 10.7 8.6 9.8 94 0.5 NNE 11 13 6 7 1019.1 1019.1 2.8
06/02:30am 11.0 9.0 10.1 94 0.5 N 11 13 6 7 1019.2 1019.2 2.8
06/02:00am 11.3 9.4 10.5 95 0.4 NNE 11 13 6 7 1019.4 1019.4 2.6
06/01:30am 11.3 9.8 10.5 95 0.4 N 9 11 5 6 1019.5 1019.5 2.6
06/01:00am 11.3 10.4 10.5 95 0.4 ENE 6 7 3 4 1019.5 1019.5 2.6
06/12:30am 11.4 9.9 10.6 95 0.4 ENE 9 15 5 8 1019.5 1019.5 2.6
06/12:00am 11.5 10.0 10.7 95 0.4 E 9 13 5 7 1019.7 1019.7 2.6
 
Date/Time
WST
Temp
°C
App
Temp
°C
Dew
Point
°C
Rel
Hum
%
Delta-T
°C
Wind Press
QNH
hPa
Press
MSL
hPa
Rain since
9am
mm
Dir  Spd
km/h
Gust
km/h
Spd
kts
Gust
kts
05/11:30pm 11.5 9.7 10.7 95 0.4 ENE 11 13 6 7 1019.9 1019.9 2.6
05/11:11pm 11.5 10.4 10.7 95 0.4 ENE 7 9 4 5 1020.0 1020.0 2.6
05/11:00pm 11.5 10.0 10.7 95 0.4 ENE 9 9 5 5 1020.1 1020.1 2.6
05/10:52pm 11.6 10.2 10.8 95 0.4 ENE 9 9 5 5 1020.2 1020.2 2.6
05/10:30pm 11.6 10.2 10.8 95 0.4 ENE 9 11 5 6 1020.3 1020.3 2.6

Latest Capital City Observations: Canberra | Sydney | Melbourne | Brisbane | Adelaide | Perth | Hobart | Darwin

Other formats

Comma delimited format used in spreadsheet applications
http://www.bom.gov.au/fwo/IDW60901/IDW60901.94610.axf

JavaScript Object Notation format (JSON) in row-major order
http://www.bom.gov.au/fwo/IDW60901/IDW60901.94610.json

Data quality

Most of these data are generated automatically and are frequently updated. Quality checks on data are not normally performed. It is possible for incorrect values to appear. Refer to information at About Latest Weather Observations and please check the disclaimer before using these data.